createdAt,value
2019-02-12T00:01:36.725Z,1.20
2019-02-12T00:04:05.513Z,1.20
2019-02-12T00:06:33.894Z,1.20
2019-02-12T00:09:02.282Z,1.20
2019-02-12T00:11:30.681Z,1.20
2019-02-12T00:13:59.406Z,1.20
2019-02-12T00:16:27.786Z,1.30
2019-02-12T00:18:56.467Z,1.40
2019-02-12T00:21:25.087Z,1.50
2019-02-12T00:23:53.487Z,1.60
2019-02-12T00:26:21.878Z,1.70
2019-02-12T00:28:50.530Z,1.80
2019-02-12T00:31:18.927Z,1.90
2019-02-12T00:33:47.312Z,2.00
2019-02-12T00:36:15.721Z,2.10
2019-02-12T00:38:44.113Z,2.20
2019-02-12T00:41:12.511Z,2.30
2019-02-12T00:43:40.912Z,2.40
2019-02-12T00:46:09.318Z,2.40
2019-02-12T00:48:37.709Z,2.50
2019-02-12T00:51:06.126Z,2.50
2019-02-12T00:53:34.526Z,2.50
2019-02-12T00:56:02.926Z,2.50
2019-02-12T00:58:31.329Z,2.50
2019-02-12T01:00:59.718Z,2.60
2019-02-12T01:03:28.123Z,2.60
2019-02-12T01:05:56.513Z,2.70
2019-02-12T01:08:24.906Z,2.70
2019-02-12T01:10:53.305Z,2.70
2019-02-12T01:13:22.039Z,2.70
2019-02-12T01:15:50.424Z,2.80
2019-02-12T01:18:18.818Z,2.80
2019-02-12T01:20:47.227Z,2.80
2019-02-12T01:23:15.620Z,2.80
2019-02-12T01:25:44.006Z,2.80
2019-02-12T01:28:12.410Z,2.70
2019-02-12T01:30:40.839Z,2.70
2019-02-12T01:33:09.229Z,2.60
2019-02-12T01:35:37.696Z,2.50
2019-02-12T01:38:06.132Z,2.30
2019-02-12T01:40:34.529Z,2.20
2019-02-12T01:43:02.937Z,2.10
2019-02-12T01:45:31.322Z,2.00
2019-02-12T01:47:59.726Z,1.90
2019-02-12T01:50:28.431Z,1.80
2019-02-12T01:52:56.838Z,1.70
2019-02-12T01:55:25.235Z,1.50
2019-02-12T01:57:53.913Z,1.40
2019-02-12T02:00:22.310Z,1.20
2019-02-12T02:02:50.698Z,1.10
2019-02-12T02:05:19.110Z,1.10
2019-02-12T02:07:47.512Z,1.00
2019-02-12T02:10:17.269Z,0.90
2019-02-12T02:12:45.679Z,0.80
2019-02-12T02:15:15.020Z,0.70
2019-02-12T02:17:43.419Z,0.70
2019-02-12T02:20:31.167Z,0.60
2019-02-12T02:22:59.564Z,0.50
2019-02-12T02:25:28.169Z,0.40
2019-02-12T02:27:56.559Z,0.30
2019-02-12T02:30:24.992Z,0.20
2019-02-12T02:32:53.407Z,0.20
2019-02-12T02:35:21.853Z,0.20
2019-02-12T02:37:50.247Z,0.20
2019-02-12T02:40:18.656Z,0.20
2019-02-12T02:42:47.428Z,0.20
2019-02-12T02:45:15.834Z,0.30
2019-02-12T02:47:44.261Z,0.30
2019-02-12T02:50:12.648Z,0.40
2019-02-12T02:52:41.041Z,0.50
2019-02-12T02:55:09.974Z,0.60
2019-02-12T02:57:38.346Z,0.60
2019-02-12T03:00:09.303Z,0.60
2019-02-12T03:02:37.689Z,0.60
2019-02-12T03:05:08.611Z,0.60
2019-02-12T03:07:37.213Z,0.60
2019-02-12T03:10:07.124Z,0.60
2019-02-12T03:12:35.520Z,0.60
2019-02-12T03:15:04.383Z,0.60
2019-02-12T03:17:32.781Z,0.40
2019-02-12T03:20:01.185Z,0.40
2019-02-12T03:22:30.160Z,0.30
2019-02-12T03:24:58.555Z,0.30
2019-02-12T03:27:26.936Z,0.40
2019-02-12T03:29:55.642Z,0.50
2019-02-12T03:32:24.042Z,0.60
2019-02-12T03:34:52.441Z,0.70
2019-02-12T03:37:20.922Z,0.80
2019-02-12T03:39:49.309Z,0.80
2019-02-12T03:42:17.723Z,0.90
2019-02-12T03:44:46.657Z,0.90
2019-02-12T03:47:15.067Z,0.90
2019-02-12T03:49:43.462Z,1.00
2019-02-12T03:52:13.237Z,1.10
2019-02-12T03:54:41.912Z,1.10
2019-02-12T03:57:10.301Z,1.20
2019-02-12T03:59:38.690Z,1.30
2019-02-12T04:02:07.093Z,1.40
2019-02-12T04:04:54.818Z,1.40
2019-02-12T04:07:23.236Z,1.50
2019-02-12T04:09:51.629Z,1.60
2019-02-12T04:12:20.021Z,1.60
2019-02-12T04:14:48.711Z,1.70
2019-02-12T04:17:17.387Z,1.70
2019-02-12T04:19:45.834Z,1.80
2019-02-12T04:22:22.139Z,1.80
2019-02-12T04:24:44.375Z,1.90
2019-02-12T04:27:12.770Z,1.90
2019-02-12T04:29:41.175Z,2.00
2019-02-12T04:32:09.565Z,2.00
2019-02-12T04:34:37.964Z,2.00
2019-02-12T04:37:06.354Z,2.00
2019-02-12T04:39:34.742Z,2.00
2019-02-12T04:42:03.130Z,2.10
2019-02-12T04:44:31.530Z,2.10
2019-02-12T04:46:59.938Z,2.10
2019-02-12T04:49:47.666Z,2.10
2019-02-12T04:52:16.079Z,2.00
2019-02-12T04:54:44.735Z,1.90
2019-02-12T04:57:13.187Z,1.80
2019-02-12T04:59:41.652Z,1.80
2019-02-12T05:02:10.101Z,1.70
2019-02-12T05:04:38.502Z,1.70
2019-02-12T05:07:07.170Z,1.60
2019-02-12T05:09:39.110Z,1.60
2019-02-12T05:12:07.543Z,1.60
2019-02-12T05:14:35.954Z,1.60
2019-02-12T05:17:04.377Z,1.70
2019-02-12T05:19:32.750Z,1.70
2019-02-12T05:22:01.159Z,1.80
2019-02-12T05:24:29.547Z,1.90
2019-02-12T05:26:57.966Z,1.90
2019-02-12T05:29:26.389Z,1.90
2019-02-12T05:32:00.458Z,1.90
2019-02-12T05:34:28.861Z,2.00
2019-02-12T05:36:57.263Z,2.00
2019-02-12T05:39:25.664Z,2.10
2019-02-12T05:41:54.068Z,2.10
2019-02-12T05:44:22.471Z,2.10
2019-02-12T05:46:50.859Z,2.00
2019-02-12T05:49:19.256Z,1.90
2019-02-12T05:51:47.654Z,1.90
2019-02-12T05:54:16.058Z,1.80
2019-02-12T05:56:44.475Z,1.80
2019-02-12T05:59:12.862Z,1.80
2019-02-12T06:01:41.275Z,1.70
2019-02-12T06:04:09.678Z,1.70
2019-02-12T06:06:38.086Z,1.60
2019-02-12T06:09:06.507Z,1.60
2019-02-12T06:11:34.895Z,1.60
2019-02-12T06:14:03.283Z,1.50
2019-02-12T06:16:31.698Z,1.50
2019-02-12T06:19:00.659Z,1.50
2019-02-12T06:21:29.170Z,1.50
2019-02-12T06:23:57.559Z,1.50
2019-02-12T06:26:25.971Z,1.40
2019-02-12T06:28:54.374Z,1.40
2019-02-12T06:31:22.773Z,1.40
2019-02-12T06:33:51.178Z,1.30
2019-02-12T06:36:19.580Z,1.30
2019-02-12T06:38:48.025Z,1.20
2019-02-12T06:41:16.494Z,1.20
2019-02-12T06:43:44.890Z,1.10
2019-02-12T06:46:13.581Z,1.10
2019-02-12T06:48:41.970Z,1.00
2019-02-12T06:51:10.370Z,1.00
2019-02-12T06:53:38.979Z,1.00
2019-02-12T06:56:07.490Z,1.00
2019-02-12T06:58:36.150Z,1.00
2019-02-12T07:01:04.567Z,1.00
2019-02-12T07:03:53.587Z,1.10
2019-02-12T07:06:52.049Z,1.20
2019-02-12T07:09:29.229Z,1.20
2019-02-12T07:12:27.775Z,1.30
2019-02-12T07:15:04.433Z,1.30
2019-02-12T07:17:58.573Z,1.40
2019-02-12T07:20:45.002Z,1.50
2019-02-12T07:23:40.162Z,1.60
2019-02-12T07:26:28.486Z,1.60
2019-02-12T07:29:02.686Z,1.70
2019-02-12T07:31:45.980Z,1.80
2019-02-12T07:34:23.274Z,1.90
2019-02-12T07:37:22.165Z,2.00
2019-02-12T07:40:17.753Z,2.10
2019-02-12T07:42:51.924Z,2.30
2019-02-12T07:45:35.026Z,2.40
2019-02-12T07:48:30.031Z,2.50
2019-02-12T07:51:30.598Z,2.60
2019-02-12T07:54:13.495Z,2.70
2019-02-12T07:57:14.151Z,2.80
2019-02-12T08:00:02.299Z,2.90
2019-02-12T08:02:59.746Z,3.10
2019-02-12T08:05:47.845Z,3.10
2019-02-12T08:08:48.331Z,3.30
2019-02-12T08:11:25.642Z,3.40
2019-02-12T08:14:27.480Z,3.50
2019-02-12T08:17:18.761Z,3.60
2019-02-12T08:20:02.363Z,3.80
2019-02-12T08:22:48.647Z,3.90
2019-02-12T08:25:31.754Z,4.00
2019-02-12T08:28:08.984Z,4.20
2019-02-12T08:30:43.155Z,4.30
2019-02-12T08:33:26.592Z,4.40
2019-02-12T08:36:04.291Z,4.50
2019-02-12T08:38:47.486Z,4.50
2019-02-12T08:41:30.970Z,4.50
2019-02-12T08:44:19.099Z,4.50
2019-02-12T08:47:15.306Z,4.40
2019-02-12T08:50:04.770Z,4.40
2019-02-12T08:52:52.677Z,4.30
2019-02-12T08:55:26.741Z,4.30
2019-02-12T08:58:04.194Z,4.30
2019-02-12T09:00:41.425Z,4.30
2019-02-12T09:03:33.909Z,4.30
2019-02-12T09:06:26.491Z,4.40
2019-02-12T09:09:00.683Z,4.60
2019-02-12T09:11:55.075Z,4.60
2019-02-12T09:14:47.471Z,4.70
2019-02-12T09:17:24.797Z,4.70
2019-02-12T09:19:56.263Z,4.80
2019-02-12T09:22:36.773Z,4.90
2019-02-12T09:25:10.934Z,5.00
2019-02-12T09:27:44.954Z,5.10
2019-02-12T09:30:35.770Z,5.10
2019-02-12T09:33:28.072Z,5.20
2019-02-12T09:36:17.122Z,5.30
2019-02-12T09:38:48.615Z,5.50
2019-02-12T09:41:20.082Z,5.60
2019-02-12T09:44:06.490Z,5.80
2019-02-12T09:46:52.892Z,5.90
2019-02-12T09:49:43.858Z,6.00
2019-02-12T09:52:42.716Z,6.10
2019-02-12T09:55:16.891Z,6.20
2019-02-12T09:57:57.323Z,6.30
2019-02-12T10:00:43.138Z,6.30
2019-02-12T10:03:36.922Z,6.40
2019-02-12T10:06:21.606Z,6.40
2019-02-12T10:08:56.617Z,6.50
2019-02-12T10:11:36.906Z,6.60
2019-02-12T10:14:23.313Z,6.70
2019-02-12T10:17:17.969Z,6.80
2019-02-12T10:19:49.509Z,6.90
2019-02-12T10:22:41.693Z,7.00
2019-02-12T10:25:13.503Z,6.90
2019-02-12T10:27:50.720Z,6.90
2019-02-12T10:30:31.195Z,6.90
2019-02-12T10:32:59.650Z,6.80
2019-02-12T10:35:28.045Z,6.80
2019-02-12T10:37:56.443Z,6.80
2019-02-12T10:40:24.847Z,6.80
2019-02-12T10:42:53.243Z,6.90
2019-02-12T10:45:21.665Z,7.00
2019-02-12T10:47:50.054Z,7.20
2019-02-12T10:50:18.452Z,7.30
2019-02-12T10:52:46.850Z,7.40
2019-02-12T10:55:15.241Z,7.50
2019-02-12T10:57:43.652Z,7.60
2019-02-12T11:00:13.885Z,7.60
2019-02-12T11:02:42.270Z,7.60
2019-02-12T11:05:10.906Z,7.40
2019-02-12T11:07:39.319Z,7.20
2019-02-12T11:10:09.262Z,7.00
2019-02-12T11:12:37.662Z,6.90
2019-02-12T11:15:07.990Z,6.80
2019-02-12T11:17:36.399Z,6.70
2019-02-12T11:20:07.333Z,6.50
2019-02-12T11:22:35.714Z,6.30
2019-02-12T11:25:06.462Z,6.20
2019-02-12T11:27:34.851Z,6.10
2019-02-12T11:30:04.715Z,6.00
2019-02-12T11:32:33.102Z,6.00
2019-02-12T11:35:01.538Z,6.00
2019-02-12T11:37:29.910Z,6.10
2019-02-12T11:39:58.304Z,6.30
2019-02-12T11:42:26.722Z,6.50
2019-02-12T11:44:55.110Z,6.80
2019-02-12T11:47:23.510Z,6.90
2019-02-12T11:49:51.921Z,7.10
2019-02-12T11:52:20.306Z,7.20
2019-02-12T11:54:48.711Z,7.20
2019-02-12T11:57:17.120Z,7.20
2019-02-12T11:59:45.502Z,7.30
2019-02-12T12:02:13.906Z,7.30
2019-02-12T12:04:42.298Z,7.20
2019-02-12T12:07:10.687Z,7.10
2019-02-12T12:09:39.103Z,7.10
2019-02-12T12:12:07.486Z,7.20
2019-02-12T12:14:36.235Z,7.30
2019-02-12T12:17:04.699Z,7.50
2019-02-12T12:19:33.366Z,7.60
2019-02-12T12:22:01.753Z,7.60
2019-02-12T12:24:30.138Z,7.50
2019-02-12T12:27:17.887Z,7.50
2019-02-12T12:29:46.270Z,7.50
2019-02-12T12:32:14.674Z,7.40
2019-02-12T12:34:43.079Z,7.40
2019-02-12T12:37:11.490Z,7.30
2019-02-12T12:39:39.883Z,7.30
2019-02-12T12:42:08.283Z,7.30
2019-02-12T12:44:36.671Z,7.20
2019-02-12T12:47:05.058Z,7.20
2019-02-12T12:49:33.466Z,7.40
2019-02-12T12:52:01.926Z,7.50
2019-02-12T12:54:30.338Z,7.60
2019-02-12T12:56:58.724Z,7.70
2019-02-12T12:59:27.106Z,7.80
2019-02-12T13:01:55.578Z,7.70
2019-02-12T13:04:23.986Z,7.60
2019-02-12T13:06:52.374Z,7.60
2019-02-12T13:09:20.778Z,7.60
2019-02-12T13:11:49.184Z,7.60
2019-02-12T13:14:17.581Z,7.60
2019-02-12T13:16:45.962Z,7.80
2019-02-12T13:19:14.369Z,7.80
2019-02-12T13:21:43.039Z,7.90
2019-02-12T13:24:11.450Z,7.90
2019-02-12T13:26:39.840Z,7.80
2019-02-12T13:29:08.238Z,7.80
2019-02-12T13:31:36.641Z,7.70
2019-02-12T13:34:05.030Z,7.60
2019-02-12T13:36:33.655Z,7.60
2019-02-12T13:39:02.054Z,7.60
2019-02-12T13:41:30.708Z,7.60
2019-02-12T13:43:59.100Z,7.50
2019-02-12T13:46:27.489Z,7.50
2019-02-12T13:48:55.996Z,7.40
2019-02-12T13:51:24.407Z,7.30
2019-02-12T13:53:52.809Z,7.30
2019-02-12T13:56:21.280Z,7.30
2019-02-12T13:58:50.151Z,7.20
2019-02-12T14:01:18.612Z,7.10
2019-02-12T14:03:47.018Z,7.10
2019-02-12T14:06:15.506Z,7.10
2019-02-12T14:09:04.658Z,7.10
2019-02-12T14:11:33.038Z,7.20
2019-02-12T14:14:01.544Z,7.20
2019-02-12T14:16:29.951Z,7.20
2019-02-12T14:18:58.342Z,7.20
2019-02-12T14:21:26.732Z,7.20
2019-02-12T14:23:55.134Z,7.20
2019-02-12T14:26:23.520Z,7.20
2019-02-12T14:28:51.930Z,7.10
2019-02-12T14:31:20.311Z,7.00
2019-02-12T14:33:48.711Z,7.00
2019-02-12T14:36:17.174Z,7.00
2019-02-12T14:38:45.583Z,7.00
2019-02-12T14:41:13.982Z,7.00
2019-02-12T14:43:42.370Z,7.00
2019-02-12T14:46:10.764Z,6.90
2019-02-12T14:48:39.174Z,6.90
2019-02-12T14:51:07.550Z,6.90
2019-02-12T14:53:36.300Z,6.90
2019-02-12T14:56:11.160Z,6.90
2019-02-12T14:58:35.097Z,6.80
2019-02-12T15:01:03.895Z,6.90
2019-02-12T15:03:32.574Z,6.80
2019-02-12T15:06:00.958Z,6.70
2019-02-12T15:08:29.346Z,6.60
2019-02-12T15:10:57.743Z,6.60
2019-02-12T15:13:26.131Z,6.50
2019-02-12T15:15:54.531Z,6.50
2019-02-12T15:18:22.986Z,6.40
2019-02-12T15:20:51.382Z,6.40
2019-02-12T15:23:19.782Z,6.30
2019-02-12T15:25:48.175Z,6.30
2019-02-12T15:28:16.574Z,6.30
2019-02-12T15:30:44.970Z,6.30
2019-02-12T15:33:13.374Z,6.30
2019-02-12T15:35:41.767Z,6.20
2019-02-12T15:38:10.155Z,6.20
2019-02-12T15:40:38.557Z,6.10
2019-02-12T15:43:06.957Z,6.00
2019-02-12T15:45:35.628Z,6.00
2019-02-12T15:48:04.027Z,5.90
2019-02-12T15:50:32.692Z,5.90
2019-02-12T15:53:01.090Z,5.80
2019-02-12T15:55:29.498Z,5.80
2019-02-12T15:57:57.901Z,5.80
2019-02-12T16:00:26.306Z,5.80
2019-02-12T16:02:56.090Z,5.80
2019-02-12T16:05:24.811Z,5.70
2019-02-12T16:07:53.215Z,5.70
2019-02-12T16:10:21.669Z,5.70
2019-02-12T16:12:51.561Z,5.60
2019-02-12T16:15:24.381Z,5.60
2019-02-12T16:17:51.834Z,5.50
2019-02-12T16:20:20.229Z,5.40
2019-02-12T16:22:48.614Z,5.30
2019-02-12T16:25:17.030Z,5.10
2019-02-12T16:27:45.443Z,5.00
2019-02-12T16:30:15.882Z,4.90
2019-02-12T16:32:44.267Z,4.80
2019-02-12T16:35:14.410Z,4.70
2019-02-12T16:37:42.854Z,4.60
2019-02-12T16:40:13.186Z,4.50
2019-02-12T16:42:41.575Z,4.50
2019-02-12T16:45:12.923Z,4.40
2019-02-12T16:47:41.307Z,4.40
2019-02-12T16:50:09.693Z,4.30
2019-02-12T16:52:38.106Z,4.30
2019-02-12T16:55:09.429Z,4.20
2019-02-12T16:57:37.917Z,4.20
2019-02-12T17:00:13.914Z,4.10
2019-02-12T17:02:42.318Z,4.10
2019-02-12T17:05:12.751Z,4.10
2019-02-12T17:07:41.161Z,4.10
2019-02-12T17:10:10.486Z,4.10
2019-02-12T17:12:38.882Z,4.20
2019-02-12T17:15:09.921Z,4.20
2019-02-12T17:17:38.310Z,4.10
2019-02-12T17:20:15.710Z,4.10
2019-02-12T17:22:44.115Z,4.00
2019-02-12T17:25:13.338Z,3.90
2019-02-12T17:27:41.727Z,3.80
2019-02-12T17:30:17.792Z,3.80
2019-02-12T17:32:46.173Z,3.70
2019-02-12T17:35:14.645Z,3.60
2019-02-12T17:37:43.278Z,3.60
2019-02-12T17:40:17.322Z,3.60
2019-02-12T17:42:45.714Z,3.50
2019-02-12T17:45:19.880Z,3.50
2019-02-12T17:47:48.266Z,3.50
2019-02-12T17:50:16.656Z,3.40
2019-02-12T17:52:45.063Z,3.40
2019-02-12T17:55:13.542Z,3.30
2019-02-12T17:57:41.943Z,3.30
2019-02-12T18:00:17.863Z,3.20
2019-02-12T18:02:46.256Z,3.10
2019-02-12T18:05:14.654Z,2.90
2019-02-12T18:07:43.067Z,2.80
2019-02-12T18:10:12.391Z,2.70
2019-02-12T18:12:40.797Z,2.70
2019-02-12T18:15:11.527Z,2.70
2019-02-12T18:17:39.917Z,2.80
2019-02-12T18:20:10.366Z,2.80
2019-02-12T18:22:38.774Z,2.90
2019-02-12T18:25:09.504Z,2.90
2019-02-12T18:27:38.188Z,2.90
2019-02-12T18:30:17.650Z,3.00
2019-02-12T18:32:46.061Z,3.00
2019-02-12T18:35:14.868Z,3.00
2019-02-12T18:37:43.306Z,3.00
2019-02-12T18:40:15.727Z,3.00
2019-02-12T18:42:44.097Z,3.00
2019-02-12T18:45:21.378Z,3.10
2019-02-12T18:47:49.774Z,3.10
2019-02-12T18:50:18.248Z,3.10
2019-02-12T18:52:46.652Z,3.10
2019-02-12T18:55:16.000Z,3.10
2019-02-12T18:57:44.386Z,3.10
2019-02-12T19:00:15.717Z,3.10
2019-02-12T19:02:44.106Z,3.10
2019-02-12T19:05:12.511Z,3.00
2019-02-12T19:07:42.716Z,3.00
2019-02-12T19:10:14.979Z,3.00
2019-02-12T19:12:43.682Z,2.90
2019-02-12T19:15:17.022Z,2.90
2019-02-12T19:17:48.370Z,2.90
2019-02-12T19:20:16.763Z,2.90
2019-02-12T19:22:45.147Z,2.90
2019-02-12T19:25:13.613Z,2.90
2019-02-12T19:27:42.019Z,2.90
2019-02-12T19:30:13.101Z,2.90
2019-02-12T19:32:41.502Z,2.80
2019-02-12T19:35:11.151Z,2.80
2019-02-12T19:37:39.626Z,2.80
2019-02-12T19:40:10.175Z,2.80
2019-02-12T19:42:38.567Z,2.70
2019-02-12T19:45:13.050Z,2.70
2019-02-12T19:47:41.445Z,2.70
2019-02-12T19:50:10.869Z,2.70
2019-02-12T19:52:39.269Z,2.70
2019-02-12T19:55:09.514Z,2.70
2019-02-12T19:57:37.910Z,2.70
2019-02-12T20:00:19.408Z,2.70
2019-02-12T20:02:48.433Z,2.70
2019-02-12T20:05:16.824Z,2.60
2019-02-12T20:07:45.249Z,2.60
2019-02-12T20:10:14.775Z,2.60
2019-02-12T20:12:43.178Z,2.50
2019-02-12T20:15:16.877Z,2.40
2019-02-12T20:17:45.271Z,2.30
2019-02-12T20:20:14.024Z,2.20
2019-02-12T20:22:42.428Z,2.10
2019-02-12T20:25:11.969Z,2.00
2019-02-12T20:27:40.372Z,2.00
2019-02-12T20:30:13.684Z,1.90
2019-02-12T20:32:42.163Z,1.80
2019-02-12T20:35:13.179Z,1.80
2019-02-12T20:37:41.574Z,1.70
2019-02-12T20:40:12.107Z,1.60
2019-02-12T20:42:40.519Z,1.50
2019-02-12T20:45:11.920Z,1.30
2019-02-12T20:47:40.346Z,1.20
2019-02-12T20:50:11.667Z,1.10
2019-02-12T20:52:41.191Z,1.00
2019-02-12T20:55:11.524Z,0.90
2019-02-12T20:57:39.974Z,0.90
2019-02-12T21:00:14.387Z,0.80
2019-02-12T21:02:42.778Z,0.90
2019-02-12T21:05:13.707Z,0.90
2019-02-12T21:07:42.151Z,0.90
2019-02-12T21:10:13.432Z,0.90
2019-02-12T21:12:41.852Z,1.00
2019-02-12T21:15:13.541Z,0.90
2019-02-12T21:17:42.011Z,0.90
2019-02-12T21:20:11.350Z,0.90
2019-02-12T21:22:40.897Z,0.90
2019-02-12T21:25:11.338Z,0.90
2019-02-12T21:27:39.737Z,0.90
2019-02-12T21:30:17.142Z,0.90
2019-02-12T21:32:45.546Z,0.90
2019-02-12T21:35:14.199Z,0.80
2019-02-12T21:37:42.612Z,0.80
2019-02-12T21:40:16.390Z,0.80
2019-02-12T21:42:44.799Z,0.80
2019-02-12T21:45:13.668Z,0.80
2019-02-12T21:47:42.543Z,0.70
2019-02-12T21:50:12.562Z,0.60
2019-02-12T21:52:41.051Z,0.50
2019-02-12T21:55:12.528Z,0.40
2019-02-12T21:57:40.994Z,0.30
2019-02-12T22:00:12.544Z,0.20
2019-02-12T22:02:40.955Z,0.00
2019-02-12T22:05:11.758Z,-0.10
2019-02-12T22:07:40.247Z,-0.20
2019-02-12T22:10:11.405Z,-0.30
2019-02-12T22:12:39.862Z,-0.40
2019-02-12T22:15:11.066Z,-0.50
2019-02-12T22:17:40.714Z,-0.60
2019-02-12T22:20:11.453Z,-0.70
2019-02-12T22:22:39.874Z,-0.70
2019-02-12T22:25:10.350Z,-0.80
2019-02-12T22:27:40.657Z,-0.80
2019-02-12T22:30:17.135Z,-0.80
2019-02-12T22:32:45.550Z,-0.80
2019-02-12T22:35:14.695Z,-0.80
2019-02-12T22:37:43.190Z,-0.80
2019-02-12T22:40:14.010Z,-0.70
2019-02-12T22:42:42.445Z,-0.70
2019-02-12T22:45:16.559Z,-0.70
2019-02-12T22:47:44.998Z,-0.70
2019-02-12T22:50:13.878Z,-0.70
2019-02-12T22:52:42.586Z,-0.70
2019-02-12T22:55:11.834Z,-0.80
2019-02-12T22:57:48.573Z,-0.80
2019-02-12T23:00:44.808Z,-0.90
2019-02-12T23:03:13.454Z,-1.00
2019-02-12T23:05:41.862Z,-1.10
2019-02-12T23:08:10.262Z,-1.10
2019-02-12T23:10:38.654Z,-1.20
2019-02-12T23:13:07.065Z,-1.30
2019-02-12T23:15:35.703Z,-1.30
2019-02-12T23:18:04.343Z,-1.40
2019-02-12T23:20:32.763Z,-1.40
2019-02-12T23:23:01.230Z,-1.40
2019-02-12T23:25:29.634Z,-1.50
2019-02-12T23:27:58.078Z,-1.50
2019-02-12T23:30:26.489Z,-1.50
2019-02-12T23:32:54.908Z,-1.60
2019-02-12T23:35:23.302Z,-1.60
2019-02-12T23:37:51.702Z,-1.70
2019-02-12T23:40:20.168Z,-1.70
2019-02-12T23:42:48.597Z,-1.70
2019-02-12T23:45:17.129Z,-1.70
2019-02-12T23:47:45.534Z,-1.70
2019-02-12T23:50:13.948Z,-1.60
2019-02-12T23:52:42.363Z,-1.60
2019-02-12T23:55:10.775Z,-1.70
2019-02-12T23:57:39.170Z,-1.70
